Time;durP1;ratioP1;P1;durP2;ratioP2;P2;SDS_P1;SDS_P2;PMS_P1;PMS_P2;Temp;Humidity;BMP_temperature;BMP_pressure;BME280_temperature;BME280_humidity;BME280_pressure;Samples;Min_cycle;Max_cycle;Signal;HPM_P1;HPM_P2
2024/02/08 00:04:22;;;;;;;11.80;6.40;;;;;;;1.76;90.88;97433.27;436500;1253;110504;-40
2024/02/08 00:14:31;;;;;;;13.50;6.80;;;;;;;1.69;90.71;97434.42;436433;1253;108307;-40
2024/02/08 00:24:38;;;;;;;12.80;6.00;;;;;;;1.52;90.63;97439.24;436435;1251;97881;-39
2024/02/08 00:34:45;;;;;;;11.60;5.10;;;;;;;1.36;90.63;97446.42;436376;1251;111137;-39
2024/02/08 00:54:56;;;;;;;10.40;2.80;;;;;;;1.12;89.66;97465.22;436292;1253;97906;-39
2024/02/08 01:05:04;;;;;;;5.70;2.50;;;;;;;0.96;88.82;97464.08;436493;1253;110906;-40
2024/02/08 01:25:16;;;;;;;12.50;3.80;;;;;;;0.88;88.00;97469.33;436467;1251;97446;-39
2024/02/08 01:35:23;;;;;;;14.10;6.40;;;;;;;0.81;87.96;97467.92;436525;1253;109729;-39
2024/02/08 01:45:33;;;;;;;10.20;3.60;;;;;;;0.71;87.79;97458.44;436361;1253;108553;-38
2024/02/08 01:55:41;;;;;;;18.20;5.90;;;;;;;0.57;87.51;97460.20;436382;1253;97572;-41
2024/02/08 02:05:48;;;;;;;17.60;6.10;;;;;;;0.46;87.38;97459.88;436781;1252;97941;-39
2024/02/08 02:15:57;;;;;;;13.90;3.60;;;;;;;0.47;86.98;97450.59;436259;1247;109715;-38
2024/02/08 02:26:05;;;;;;;7.30;2.90;;;;;;;0.59;86.91;97448.71;435308;1251;108663;-40
2024/02/08 02:36:14;;;;;;;12.30;3.50;;;;;;;0.65;86.90;97458.85;435305;1256;98428;-38
2024/02/08 02:46:22;;;;;;;22.30;5.60;;;;;;;0.59;86.82;97461.67;435362;1256;97900;-39
2024/02/08 02:56:31;;;;;;;9.80;3.10;;;;;;;0.48;86.87;97461.32;435380;1256;110694;-40
2024/02/08 03:06:42;;;;;;;13.70;6.30;;;;;;;0.44;86.66;97464.61;435367;1256;108759;-40
2024/02/08 03:16:51;;;;;;;17.60;5.50;;;;;;;0.41;86.65;97455.48;435391;1253;97877;-40
2024/02/08 03:26:59;;;;;;;10.90;4.30;;;;;;;0.37;86.48;97454.63;435499;1256;97873;-38
2024/02/08 03:37:08;;;;;;;6.80;2.70;;;;;;;0.41;86.43;97458.31;435766;1256;110837;-39
2024/02/08 03:47:17;;;;;;;7.80;3.10;;;;;;;0.55;86.53;97456.50;435407;1256;108600;-40
2024/02/08 03:57:25;;;;;;;15.30;6.40;;;;;;;0.61;86.49;97462.41;435321;1256;97042;-40
2024/02/08 04:07:56;;;;;;;15.80;7.90;;;;;;;0.56;86.38;97461.48;434940;1256;575722;-40
2024/02/08 04:59:35;;;;;;;31.20;13.90;;;;;;;-0.18;85.95;97462.25;435462;1250;110404;-39
2024/02/08 05:09:44;;;;;;;35.20;17.80;;;;;;;-0.21;85.99;97465.42;435352;1251;107592;-39
2024/02/08 05:19:52;;;;;;;50.00;20.80;;;;;;;-0.16;86.37;97465.83;435380;1256;97788;-39
2024/02/08 05:30:01;;;;;;;46.30;24.30;;;;;;;-0.20;86.66;97466.27;435300;1256;109373;-39
2024/02/08 05:40:14;;;;;;;58.10;30.40;;;;;;;-0.31;86.54;97464.55;435416;1256;96632;-39
2024/02/08 05:50:22;;;;;;;57.10;26.70;;;;;;;-0.56;86.65;97466.55;435484;1255;97804;-39
2024/02/08 06:00:35;;;;;;;74.90;32.10;;;;;;;-0.75;86.63;97472.58;435378;1256;110886;-40
2024/02/08 06:10:45;;;;;;;67.30;32.70;;;;;;;-0.85;86.75;97471.38;435492;1256;108516;-39
2024/02/08 06:20:59;;;;;;;52.60;29.90;;;;;;;-0.77;86.81;97469.88;435235;1256;97877;-40
2024/02/08 06:31:08;;;;;;;81.20;36.60;;;;;;;-0.71;86.84;97480.29;435418;1256;110374;-39
2024/02/08 06:41:24;;;;;;;98.60;46.90;;;;;;;-0.61;87.14;97495.39;435375;1256;108545;-39
2024/02/08 07:43:34;;;;;;;84.90;36.30;;;;;;;0.64;87.00;97484.98;435454;1251;107933;-40
2024/02/08 07:53:50;;;;;;;55.80;24.50;;;;;;;0.72;86.86;97483.27;435444;1257;97889;-39
2024/02/08 08:04:01;;;;;;;53.40;25.00;;;;;;;0.68;86.51;97483.67;435365;1264;110396;-40
2024/02/08 08:14:36;;;;;;;67.00;31.10;;;;;;;0.70;86.37;97471.91;435527;1256;108531;-40
2024/02/08 08:25:00;;;;;;;50.40;23.50;;;;;;;0.86;86.13;97476.34;435427;1264;96628;-40
2024/02/08 08:45:31;;;;;;;38.70;14.10;;;;;;;1.15;85.96;97469.39;435379;1264;108514;-39
2024/02/08 08:55:48;;;;;;;34.50;13.00;;;;;;;1.14;85.38;97438.27;435412;1255;97887;-38
2024/02/08 09:05:57;;;;;;;21.30;9.90;;;;;;;1.12;85.05;97417.84;435376;1257;110803;-38
2024/02/08 09:26:46;;;;;;;20.00;6.20;;;;;;;1.38;84.30;97431.92;435385;1256;97899;-39
2024/02/08 09:36:57;;;;;;;14.50;4.40;;;;;;;1.69;83.73;97428.13;435255;1251;96641;-39
2024/02/08 09:47:06;;;;;;;20.70;7.20;;;;;;;1.84;83.36;97423.30;435520;1251;108638;-39
2024/02/08 09:57:22;;;;;;;;;;;;;;;1.90;82.81;97423.97;435513;1255;98250;-39
2024/02/08 10:07:35;;;;;;;9.70;4.90;;;;;;;2.04;82.12;97418.55;435412;1251;97902;-38
2024/02/08 10:17:51;;;;;;;15.70;5.20;;;;;;;2.23;81.34;97408.92;435302;1257;111340;-39
2024/02/08 10:28:02;;;;;;;12.50;3.90;;;;;;;2.48;80.64;97399.67;435471;1254;108639;-39
2024/02/08 10:38:29;;;;;;;11.50;4.70;;;;;;;2.53;78.86;97378.04;435374;1255;97883;-39
2024/02/08 10:48:38;;;;;;;16.90;5.40;;;;;;;2.59;77.72;97362.84;435435;1254;96603;-39
2024/02/08 10:58:55;;;;;;;14.80;5.60;;;;;;;2.73;77.32;97361.54;435463;1254;110839;-39
2024/02/08 11:19:34;;;;;;;14.10;5.70;;;;;;;2.96;76.60;97357.89;435418;1254;97506;-41
2024/02/08 11:29:46;;;;;;;21.50;7.90;;;;;;;3.04;76.57;97333.21;435219;1253;97865;-39
2024/02/08 11:40:09;;;;;;;22.00;8.60;;;;;;;3.00;75.88;97315.20;435424;1254;109702;-39
2024/02/08 11:50:24;;;;;;;18.30;6.40;;;;;;;2.87;75.51;97299.58;435654;1250;108074;-39
2024/02/08 12:00:32;;;;;;;25.10;8.50;;;;;;;2.90;75.33;97292.96;435522;1254;96677;-38
2024/02/08 12:10:42;;;;;;;18.40;8.30;;;;;;;2.98;75.50;97287.18;435404;1254;97900;-40
2024/02/08 12:20:56;;;;;;;27.20;11.90;;;;;;;3.05;75.73;97278.75;435256;1254;110863;-39
2024/02/08 12:31:16;;;;;;;37.00;14.10;;;;;;;3.05;75.63;97259.02;435287;1255;108597;-39
2024/02/08 12:41:29;;;;;;;32.00;13.30;;;;;;;3.10;75.70;97248.79;435417;1254;97915;-38
2024/02/08 12:51:41;;;;;;;30.50;14.20;;;;;;;3.21;75.76;97247.31;435286;1254;96622;-41
2024/02/08 13:01:50;;;;;;;26.60;11.10;;;;;;;3.12;75.42;97238.09;435590;1254;110807;-39
2024/02/08 13:12:17;;;;;;;40.30;12.70;;;;;;;3.12;75.65;97235.36;435286;1254;108767;-41
2024/02/08 13:22:31;;;;;;;29.20;11.50;;;;;;;3.07;75.63;97238.25;435458;1251;97784;-39
2024/02/08 13:32:39;;;;;;;25.50;8.40;;;;;;;3.02;75.71;97222.78;435277;1254;97480;-38
2024/02/08 13:42:48;;;;;;;17.90;7.60;;;;;;;3.04;75.71;97204.88;435275;1251;110485;-39
2024/02/08 13:53:06;;;;;;;21.50;8.50;;;;;;;3.01;75.51;97187.13;435287;1254;109176;-40
2024/02/08 14:03:17;;;;;;;15.40;7.60;;;;;;;2.99;75.63;97178.70;435393;1254;97478;-39
2024/02/08 14:13:34;;;;;;;16.70;7.10;;;;;;;2.92;75.58;97174.05;435348;1250;97921;-40
2024/02/08 14:23:48;;;;;;;21.10;8.10;;;;;;;2.80;75.40;97164.83;435394;1254;110890;-38
2024/02/08 14:33:57;;;;;;;17.00;6.00;;;;;;;2.74;75.03;97161.23;435504;1250;108574;-40
2024/02/08 14:44:16;;;;;;;19.60;9.20;;;;;;;2.67;75.23;97161.64;435412;1250;97960;-39
2024/02/08 14:54:26;;;;;;;15.40;7.60;;;;;;;2.59;75.44;97166.88;435404;1254;97994;-38
2024/02/08 15:04:34;;;;;;;17.20;8.10;;;;;;;2.46;75.43;97171.17;435444;1254;110451;-39
2024/02/08 15:14:42;;;;;;;20.40;8.30;;;;;;;2.32;75.68;97162.69;435405;1250;108992;-39
2024/02/08 15:24:56;;;;;;;21.10;8.50;;;;;;;2.25;75.86;97152.77;435364;1254;96568;-39
2024/02/08 15:35:09;;;;;;;12.70;6.30;;;;;;;2.21;75.81;97134.98;435377;1251;97340;-40
2024/02/08 15:45:21;;;;;;;21.10;8.30;;;;;;;2.23;76.14;97125.73;435234;1254;108181;-40
2024/02/08 15:55:38;;;;;;;37.90;15.60;;;;;;;2.13;76.47;97114.45;435501;1254;96645;-39
2024/02/08 16:05:50;;;;;;;37.00;16.00;;;;;;;2.01;76.78;97120.25;435477;1254;96632;-40
2024/02/08 16:16:07;;;;;;;35.10;13.00;;;;;;;1.91;77.05;97112.25;435048;1254;483393;-39
2024/02/08 16:26:18;;;;;;;29.50;12.40;;;;;;;1.87;77.42;97099.73;435392;1254;108451;-39
2024/02/08 16:36:44;;;;;;;23.80;13.90;;;;;;;1.88;77.88;97099.40;435440;1254;97870;-40
2024/02/08 16:46:54;;;;;;;46.80;21.80;;;;;;;1.96;78.37;97108.50;435415;1254;110923;-39
2024/02/08 16:57:06;;;;;;;47.70;25.60;;;;;;;1.90;79.13;97108.55;435454;1254;108629;-40
2024/02/08 17:07:24;;;;;;;46.60;25.00;;;;;;;1.74;79.51;97093.05;435235;1254;97887;-40
2024/02/08 17:17:38;;;;;;;48.10;24.60;;;;;;;1.74;80.14;97091.33;435396;1254;110517;-38
2024/02/08 17:38:08;;;;;;;31.80;19.00;;;;;;;1.88;80.99;97075.50;435524;1250;97461;-38
2024/02/08 17:48:16;;;;;;;66.40;33.20;;;;;;;1.89;81.38;97057.77;435393;1254;107377;-43
2024/02/08 17:58:24;;;;;;;61.00;30.20;;;;;;;1.78;81.70;97054.48;435449;1250;97864;-38
2024/02/08 18:08:38;;;;;;;106.10;38.60;;;;;;;1.64;82.04;97044.84;435529;1254;98002;-40
2024/02/08 18:18:47;;;;;;;65.00;30.90;;;;;;;1.63;82.21;97033.48;435624;1254;110682;-40
2024/02/08 18:29:02;;;;;;;61.80;27.60;;;;;;;1.65;82.51;97030.38;435529;1250;109601;-41
2024/02/08 18:39:25;;;;;;;39.80;20.70;;;;;;;1.78;82.87;97020.42;435469;1250;97471;-41
2024/02/08 18:49:34;;;;;;;44.60;25.90;;;;;;;1.67;83.15;97005.39;435422;1254;108447;-41
2024/02/08 18:59:45;;;;;;;60.30;28.20;;;;;;;1.57;83.41;96990.95;435507;1255;97877;-39
2024/02/08 19:09:54;;;;;;;54.40;31.20;;;;;;;1.50;83.46;96975.23;435307;1254;97884;-40
2024/02/08 19:20:04;;;;;;;;;;;;;;;1.51;83.77;96960.35;435388;1250;108312;-38
2024/02/08 19:30:15;;;;;;;37.50;23.30;;;;;;;1.53;84.20;96950.88;435334;1251;98015;-39
2024/02/08 19:40:24;;;;;;;42.50;23.20;;;;;;;1.57;84.55;96948.27;435336;1254;111065;-39
2024/02/08 19:50:35;;;;;;;64.20;30.00;;;;;;;1.61;84.92;96940.46;435326;1250;108668;-40
2024/02/08 20:00:44;;;;;;;57.70;31.40;;;;;;;1.60;85.17;96934.17;435521;1254;97465;-39
2024/02/08 20:10:58;;;;;;;41.50;25.40;;;;;;;1.56;85.15;96935.77;435306;1254;111309;-40
2024/02/08 20:21:05;;;;;;;;;;;;;;;1.61;85.46;96927.71;435435;1250;108506;-39
2024/02/08 20:31:16;;;;;;;58.40;27.20;;;;;;;1.67;85.65;96916.02;435470;1251;96636;-40
2024/02/08 20:41:26;;;;;;;71.70;33.10;;;;;;;1.64;85.74;96903.56;435512;1254;108501;-39
2024/02/08 20:51:35;;;;;;;79.10;37.00;;;;;;;1.48;86.01;96887.28;435450;1254;97887;-40
2024/02/08 21:01:44;;;;;;;50.90;29.30;;;;;;;1.37;86.02;96858.48;435390;1250;97874;-42
2024/02/08 21:11:52;;;;;;;54.20;27.30;;;;;;;1.37;86.13;96847.90;435209;1252;107583;-39
2024/02/08 21:22:01;;;;;;;40.30;23.50;;;;;;;1.42;86.31;96863.34;435375;1250;98615;-39
2024/02/08 21:32:10;;;;;;;55.70;31.00;;;;;;;1.46;86.58;96875.38;435601;1250;110854;-40
2024/02/08 21:42:19;;;;;;;60.90;29.60;;;;;;;1.51;86.95;96886.98;435423;1254;107638;-40
2024/02/08 21:52:28;;;;;;;55.30;29.90;;;;;;;1.39;86.78;96895.61;435394;1254;107615;-40
2024/02/08 22:02:36;;;;;;;43.20;26.20;;;;;;;1.22;86.65;96900.57;435373;1254;97881;-40
2024/02/08 22:12:45;;;;;;;35.20;20.60;;;;;;;1.17;86.69;96897.39;435425;1256;108334;-40
2024/02/08 22:22:54;;;;;;;31.70;19.80;;;;;;;1.19;86.80;96904.29;435287;1250;97851;-39
2024/02/08 22:33:06;;;;;;;51.40;25.30;;;;;;;1.14;86.99;96914.20;435435;1256;110873;-39
2024/02/08 22:43:15;;;;;;;37.90;21.40;;;;;;;0.84;87.01;96914.64;435475;1250;109002;-39
2024/02/08 22:53:23;;;;;;;30.90;18.90;;;;;;;0.77;87.26;96918.78;435420;1256;97877;-41
2024/02/08 23:03:31;;;;;;;27.70;16.80;;;;;;;0.79;87.55;96913.48;435434;1254;110332;-39
2024/02/08 23:13:39;;;;;;;28.70;17.00;;;;;;;0.82;87.90;96911.50;435286;1256;108662;-39
2024/02/08 23:23:49;;;;;;;36.90;18.30;;;;;;;0.76;88.10;96905.54;435538;1256;97502;-39
2024/02/08 23:33:59;;;;;;;25.20;16.20;;;;;;;0.73;88.44;96898.82;435415;1254;110504;-39
2024/02/08 23:44:08;;;;;;;17.20;10.60;;;;;;;0.68;88.18;96889.16;435271;1250;108559;-40
2024/02/08 23:54:16;;;;;;;13.50;9.60;;;;;;;0.71;88.33;96877.62;435358;1254;97935;-41
